sensor_id;sensor_type;location;lat;lon;timestamp;pressure;altitude;pressure_sealevel;temperature;humidity
60725;BME280;59881;36.722;-4.462;2023-03-04T00:02:00;101198.91;;;10.11;57.70
60725;BME280;59881;36.722;-4.462;2023-03-04T00:04:25;101200.53;;;10.14;57.80
60725;BME280;59881;36.722;-4.462;2023-03-04T00:06:50;101205.34;;;10.22;57.58
60725;BME280;59881;36.722;-4.462;2023-03-04T00:09:16;101209.44;;;10.27;57.44
60725;BME280;59881;36.722;-4.462;2023-03-04T00:11:41;101203.19;;;10.30;57.26
60725;BME280;59881;36.722;-4.462;2023-03-04T00:14:07;101212.84;;;10.29;57.24
60725;BME280;59881;36.722;-4.462;2023-03-04T00:16:32;101225.16;;;10.29;56.79
60725;BME280;59881;36.722;-4.462;2023-03-04T00:18:57;101231.34;;;10.28;56.71
60725;BME280;59881;36.722;-4.462;2023-03-04T00:21:23;101235.78;;;10.27;56.72
60725;BME280;59881;36.722;-4.462;2023-03-04T00:23:49;101238.31;;;10.29;56.37
60725;BME280;59881;36.722;-4.462;2023-03-04T00:26:14;101245.34;;;10.28;56.53
60725;BME280;59881;36.722;-4.462;2023-03-04T00:28:40;101247.06;;;10.29;56.85
60725;BME280;59881;36.722;-4.462;2023-03-04T00:31:06;101245.31;;;10.30;56.99
60725;BME280;59881;36.722;-4.462;2023-03-04T00:33:31;101247.00;;;10.31;57.06
60725;BME280;59881;36.722;-4.462;2023-03-04T00:35:57;101246.06;;;10.32;57.25
60725;BME280;59881;36.722;-4.462;2023-03-04T00:38:22;101246.91;;;10.32;57.67
60725;BME280;59881;36.722;-4.462;2023-03-04T00:40:47;101246.84;;;10.34;57.67
60725;BME280;59881;36.722;-4.462;2023-03-04T00:43:13;101239.78;;;10.34;57.44
60725;BME280;59881;36.722;-4.462;2023-03-04T00:45:38;101242.50;;;10.33;57.46
60725;BME280;59881;36.722;-4.462;2023-03-04T00:48:04;101236.31;;;10.34;57.54
60725;BME280;59881;36.722;-4.462;2023-03-04T00:50:29;101244.09;;;10.35;57.56
60725;BME280;59881;36.722;-4.462;2023-03-04T00:52:55;101241.38;;;10.37;57.73
60725;BME280;59881;36.722;-4.462;2023-03-04T00:55:20;101238.75;;;10.37;57.82
60725;BME280;59881;36.722;-4.462;2023-03-04T00:57:45;101246.47;;;10.40;57.23
60725;BME280;59881;36.722;-4.462;2023-03-04T01:00:11;101241.97;;;10.42;57.32
60725;BME280;59881;36.722;-4.462;2023-03-04T01:02:37;101248.00;;;10.44;56.77
60725;BME280;59881;36.722;-4.462;2023-03-04T01:05:02;101252.50;;;10.42;56.57
60725;BME280;59881;36.722;-4.462;2023-03-04T01:07:28;101250.72;;;10.43;56.55
60725;BME280;59881;36.722;-4.462;2023-03-04T01:09:53;101252.41;;;10.44;56.39
60725;BME280;59881;36.722;-4.462;2023-03-04T01:12:18;101248.59;;;10.49;56.26
60725;BME280;59881;36.722;-4.462;2023-03-04T01:14:44;101261.78;;;10.49;56.41
60725;BME280;59881;36.722;-4.462;2023-03-04T01:17:09;101260.91;;;10.49;55.97
60725;BME280;59881;36.722;-4.462;2023-03-04T01:19:36;101258.38;;;10.47;56.21
60725;BME280;59881;36.722;-4.462;2023-03-04T01:22:01;101252.22;;;10.47;55.97
60725;BME280;59881;36.722;-4.462;2023-03-04T01:24:27;101249.72;;;10.45;56.44
60725;BME280;59881;36.722;-4.462;2023-03-04T01:26:54;101254.03;;;10.46;56.31
60725;BME280;59881;36.722;-4.462;2023-03-04T01:29:19;101261.00;;;10.47;56.35
60725;BME280;59881;36.722;-4.462;2023-03-04T01:31:45;101258.25;;;10.49;56.31
60725;BME280;59881;36.722;-4.462;2023-03-04T01:34:10;101257.25;;;10.51;56.08
60725;BME280;59881;36.722;-4.462;2023-03-04T01:36:35;101252.56;;;10.56;56.35
60725;BME280;59881;36.722;-4.462;2023-03-04T01:39:01;101246.97;;;10.63;56.36
60725;BME280;59881;36.722;-4.462;2023-03-04T01:41:26;101253.84;;;10.65;56.29
60725;BME280;59881;36.722;-4.462;2023-03-04T01:43:55;101249.41;;;10.66;56.24
60725;BME280;59881;36.722;-4.462;2023-03-04T01:46:22;101242.34;;;10.66;56.11
60725;BME280;59881;36.722;-4.462;2023-03-04T01:48:47;101237.91;;;10.67;55.82
60725;BME280;59881;36.722;-4.462;2023-03-04T01:51:14;101236.22;;;10.66;55.78
60725;BME280;59881;36.722;-4.462;2023-03-04T01:53:40;101243.38;;;10.64;56.00
60725;BME280;59881;36.722;-4.462;2023-03-04T01:58:39;101250.31;;;10.65;55.95
60725;BME280;59881;36.722;-4.462;2023-03-04T02:01:05;101252.03;;;10.66;56.02
60725;BME280;59881;36.722;-4.462;2023-03-04T02:03:30;101258.16;;;10.66;56.34
60725;BME280;59881;36.722;-4.462;2023-03-04T02:05:56;101255.34;;;10.69;56.02
60725;BME280;59881;36.722;-4.462;2023-03-04T02:08:22;101260.63;;;10.69;56.28
60725;BME280;59881;36.722;-4.462;2023-03-04T02:10:47;101256.34;;;10.67;55.97
60725;BME280;59881;36.722;-4.462;2023-03-04T02:13:13;101253.84;;;10.65;56.20
60725;BME280;59881;36.722;-4.462;2023-03-04T02:15:39;101258.34;;;10.63;56.07
60725;BME280;59881;36.722;-4.462;2023-03-04T02:18:15;101245.25;;;10.62;55.93
60725;BME280;59881;36.722;-4.462;2023-03-04T02:23:15;101244.94;;;10.52;56.38
60725;BME280;59881;36.722;-4.462;2023-03-04T02:28:26;101238.22;;;10.46;56.49
60725;BME280;59881;36.722;-4.462;2023-03-04T02:30:51;101247.22;;;10.42;56.57
60725;BME280;59881;36.722;-4.462;2023-03-04T02:33:17;101243.84;;;10.40;56.37
60725;BME280;59881;36.722;-4.462;2023-03-04T02:35:44;101237.81;;;10.38;56.28
60725;BME280;59881;36.722;-4.462;2023-03-04T02:38:10;101241.19;;;10.40;56.73
60725;BME280;59881;36.722;-4.462;2023-03-04T02:40:35;101240.53;;;10.37;56.50
60725;BME280;59881;36.722;-4.462;2023-03-04T02:43:02;101238.06;;;10.33;56.65
60725;BME280;59881;36.722;-4.462;2023-03-04T02:45:47;101239.84;;;10.33;56.58
60725;BME280;59881;36.722;-4.462;2023-03-04T02:48:14;101237.31;;;10.31;56.77
60725;BME280;59881;36.722;-4.462;2023-03-04T02:50:43;101236.53;;;10.29;56.21
60725;BME280;59881;36.722;-4.462;2023-03-04T02:53:09;101232.19;;;10.28;56.33
60725;BME280;59881;36.722;-4.462;2023-03-04T02:55:35;101231.41;;;10.26;56.02
60725;BME280;59881;36.722;-4.462;2023-03-04T02:58:00;101227.94;;;10.26;56.23
60725;BME280;59881;36.722;-4.462;2023-03-04T03:00:26;101220.97;;;10.25;55.94
60725;BME280;59881;36.722;-4.462;2023-03-04T03:02:52;101217.41;;;10.26;56.03
60725;BME280;59881;36.722;-4.462;2023-03-04T03:05:17;101217.41;;;10.26;56.04
60725;BME280;59881;36.722;-4.462;2023-03-04T03:07:43;101206.88;;;10.26;56.01
60725;BME280;59881;36.722;-4.462;2023-03-04T03:10:08;101213.94;;;10.25;56.07
60725;BME280;59881;36.722;-4.462;2023-03-04T03:12:34;101214.84;;;10.24;56.37
60725;BME280;59881;36.722;-4.462;2023-03-04T03:14:59;101211.47;;;10.22;56.20
60725;BME280;59881;36.722;-4.462;2023-03-04T03:17:25;101208.75;;;10.24;56.26
60725;BME280;59881;36.722;-4.462;2023-03-04T03:19:50;101206.19;;;10.22;56.34
60725;BME280;59881;36.722;-4.462;2023-03-04T03:22:16;101213.06;;;10.25;56.44
60725;BME280;59881;36.722;-4.462;2023-03-04T03:24:41;101213.00;;;10.26;56.97
60725;BME280;59881;36.722;-4.462;2023-03-04T03:27:07;101212.84;;;10.29;56.67
60725;BME280;59881;36.722;-4.462;2023-03-04T03:29:32;101213.34;;;10.36;56.74
60725;BME280;59881;36.722;-4.462;2023-03-04T03:31:57;101201.81;;;10.39;56.78
60725;BME280;59881;36.722;-4.462;2023-03-04T03:34:23;101210.34;;;10.42;57.11
60725;BME280;59881;36.722;-4.462;2023-03-04T03:36:48;101208.47;;;10.44;57.16
60725;BME280;59881;36.722;-4.462;2023-03-04T03:39:14;101210.19;;;10.45;57.13
60725;BME280;59881;36.722;-4.462;2023-03-04T03:41:40;101216.38;;;10.44;57.02
60725;BME280;59881;36.722;-4.462;2023-03-04T03:44:05;101216.38;;;10.44;56.80
60725;BME280;59881;36.722;-4.462;2023-03-04T03:46:31;101211.13;;;10.44;56.83
60725;BME280;59881;36.722;-4.462;2023-03-04T03:48:56;101204.94;;;10.45;56.82
60725;BME280;59881;36.722;-4.462;2023-03-04T03:51:21;101208.31;;;10.47;56.73
60725;BME280;59881;36.722;-4.462;2023-03-04T03:53:47;101209.09;;;10.49;57.19
60725;BME280;59881;36.722;-4.462;2023-03-04T03:56:12;101209.16;;;10.48;56.95
60725;BME280;59881;36.722;-4.462;2023-03-04T03:58:37;101207.44;;;10.47;56.81
60725;BME280;59881;36.722;-4.462;2023-03-04T04:01:03;101212.06;;;10.43;57.07
60725;BME280;59881;36.722;-4.462;2023-03-04T04:03:28;101204.31;;;10.40;57.28
60725;BME280;59881;36.722;-4.462;2023-03-04T04:05:54;101202.81;;;10.36;57.03
60725;BME280;59881;36.722;-4.462;2023-03-04T04:08:20;101210.03;;;10.32;56.96
60725;BME280;59881;36.722;-4.462;2023-03-04T04:10:45;101215.38;;;10.31;57.11
60725;BME280;59881;36.722;-4.462;2023-03-04T04:13:11;101208.44;;;10.30;57.06
60725;BME280;59881;36.722;-4.462;2023-03-04T04:15:36;101215.53;;;10.28;57.10
60725;BME280;59881;36.722;-4.462;2023-03-04T04:18:03;101217.34;;;10.27;57.00
60725;BME280;59881;36.722;-4.462;2023-03-04T04:20:28;101217.41;;;10.26;57.17
60725;BME280;59881;36.722;-4.462;2023-03-04T04:22:54;101215.69;;;10.25;57.29
60725;BME280;59881;36.722;-4.462;2023-03-04T04:25:19;101214.03;;;10.24;57.42
60725;BME280;59881;36.722;-4.462;2023-03-04T04:27:44;101217.50;;;10.24;57.43
60725;BME280;59881;36.722;-4.462;2023-03-04T04:30:10;101220.06;;;10.26;57.41
60725;BME280;59881;36.722;-4.462;2023-03-04T04:32:35;101223.44;;;10.28;57.72
60725;BME280;59881;36.722;-4.462;2023-03-04T04:35:01;101220.59;;;10.32;57.72
60725;BME280;59881;36.722;-4.462;2023-03-04T04:37:26;101217.69;;;10.37;57.70
60725;BME280;59881;36.722;-4.462;2023-03-04T04:39:52;101224.38;;;10.43;57.65
60725;BME280;59881;36.722;-4.462;2023-03-04T04:42:19;101234.75;;;10.46;57.60
60725;BME280;59881;36.722;-4.462;2023-03-04T04:44:45;101236.44;;;10.47;57.52
60725;BME280;59881;36.722;-4.462;2023-03-04T04:47:10;101239.06;;;10.47;57.95
60725;BME280;59881;36.722;-4.462;2023-03-04T04:49:35;101250.47;;;10.47;57.56
60725;BME280;59881;36.722;-4.462;2023-03-04T04:52:01;101251.13;;;10.51;57.60
60725;BME280;59881;36.722;-4.462;2023-03-04T04:54:26;101242.38;;;10.50;57.83
60725;BME280;59881;36.722;-4.462;2023-03-04T04:56:52;101246.81;;;10.50;57.71
60725;BME280;59881;36.722;-4.462;2023-03-04T04:59:17;101245.97;;;10.49;57.99
60725;BME280;59881;36.722;-4.462;2023-03-04T05:01:42;101235.44;;;10.49;57.92
60725;BME280;59881;36.722;-4.462;2023-03-04T05:04:08;101250.56;;;10.46;57.73
60725;BME280;59881;36.722;-4.462;2023-03-04T05:06:33;101244.59;;;10.42;57.69
60725;BME280;59881;36.722;-4.462;2023-03-04T05:08:59;101254.28;;;10.42;58.10
60725;BME280;59881;36.722;-4.462;2023-03-04T05:11:25;101259.63;;;10.40;58.06
60725;BME280;59881;36.722;-4.462;2023-03-04T05:13:50;101252.84;;;10.36;57.81
60725;BME280;59881;36.722;-4.462;2023-03-04T05:16:16;101253.78;;;10.35;57.99
60725;BME280;59881;36.722;-4.462;2023-03-04T05:18:42;101245.88;;;10.35;58.17
60725;BME280;59881;36.722;-4.462;2023-03-04T05:21:07;101250.38;;;10.33;58.42
60725;BME280;59881;36.722;-4.462;2023-03-04T05:23:36;101244.34;;;10.31;58.54
60725;BME280;59881;36.722;-4.462;2023-03-04T05:26:02;101255.84;;;10.30;58.68
60725;BME280;59881;36.722;-4.462;2023-03-04T05:28:28;101247.16;;;10.28;58.78
60725;BME280;59881;36.722;-4.462;2023-03-04T05:30:53;101249.84;;;10.26;58.91
60725;BME280;59881;36.722;-4.462;2023-03-04T05:33:19;101255.19;;;10.25;59.38
60725;BME280;59881;36.722;-4.462;2023-03-04T05:35:45;101256.16;;;10.24;59.22
60725;BME280;59881;36.722;-4.462;2023-03-04T05:38:11;101264.22;;;10.21;59.56
60725;BME280;59881;36.722;-4.462;2023-03-04T05:40:37;101263.47;;;10.19;59.62
60725;BME280;59881;36.722;-4.462;2023-03-04T05:43:03;101261.00;;;10.15;59.85
60725;BME280;59881;36.722;-4.462;2023-03-04T05:45:28;101260.22;;;10.13;59.84
60725;BME280;59881;36.722;-4.462;2023-03-04T05:47:54;101256.75;;;10.13;60.07
60725;BME280;59881;36.722;-4.462;2023-03-04T05:50:20;101269.97;;;10.11;60.11
60725;BME280;59881;36.722;-4.462;2023-03-04T05:52:45;101266.50;;;10.11;60.14
60725;BME280;59881;36.722;-4.462;2023-03-04T05:55:11;101271.00;;;10.09;59.94
60725;BME280;59881;36.722;-4.462;2023-03-04T05:57:36;101272.88;;;10.07;60.43
60725;BME280;59881;36.722;-4.462;2023-03-04T06:00:02;101270.34;;;10.05;60.49
60725;BME280;59881;36.722;-4.462;2023-03-04T06:02:29;101285.13;;;10.08;60.52
60725;BME280;59881;36.722;-4.462;2023-03-04T06:04:54;101283.41;;;10.07;60.88
60725;BME280;59881;36.722;-4.462;2023-03-04T06:07:20;101283.50;;;10.05;60.90
60725;BME280;59881;36.722;-4.462;2023-03-04T06:09:46;101288.84;;;10.04;61.03
60725;BME280;59881;36.722;-4.462;2023-03-04T06:12:11;101289.09;;;9.99;61.25
60725;BME280;59881;36.722;-4.462;2023-03-04T06:14:36;101291.88;;;9.96;61.44
60725;BME280;59881;36.722;-4.462;2023-03-04T06:17:02;101293.84;;;9.92;61.39
60725;BME280;59881;36.722;-4.462;2023-03-04T06:19:28;101295.63;;;9.92;61.40
60725;BME280;59881;36.722;-4.462;2023-03-04T06:21:53;101302.78;;;9.90;61.29
60725;BME280;59881;36.722;-4.462;2023-03-04T06:24:19;101300.13;;;9.90;61.55
60725;BME280;59881;36.722;-4.462;2023-03-04T06:26:44;101305.47;;;9.88;61.66
60725;BME280;59881;36.722;-4.462;2023-03-04T06:29:10;101312.59;;;9.86;61.80
60725;BME280;59881;36.722;-4.462;2023-03-04T06:31:35;101315.22;;;9.86;61.92
60725;BME280;59881;36.722;-4.462;2023-03-04T06:34:00;101316.06;;;9.87;61.84
60725;BME280;59881;36.722;-4.462;2023-03-04T06:36:26;101316.91;;;9.87;61.96
60725;BME280;59881;36.722;-4.462;2023-03-04T06:38:51;101322.03;;;9.90;62.01
60725;BME280;59881;36.722;-4.462;2023-03-04T06:41:17;101442.94;;;9.93;61.71
60725;BME280;59881;36.722;-4.462;2023-03-04T06:43:42;101324.41;;;9.95;61.67
60725;BME280;59881;36.722;-4.462;2023-03-04T06:46:08;101320.84;;;9.96;61.55
60725;BME280;59881;36.722;-4.462;2023-03-04T06:48:33;101321.53;;;10.00;61.82
60725;BME280;59881;36.722;-4.462;2023-03-04T06:51:04;101322.22;;;10.03;61.26
60725;BME280;59881;36.722;-4.462;2023-03-04T06:53:29;101335.28;;;10.05;61.34
60725;BME280;59881;36.722;-4.462;2023-03-04T06:55:55;101333.59;;;10.04;61.19
60725;BME280;59881;36.722;-4.462;2023-03-04T06:58:20;101330.97;;;10.04;60.80
60725;BME280;59881;36.722;-4.462;2023-03-04T07:00:46;101340.47;;;10.06;61.08
60725;BME280;59881;36.722;-4.462;2023-03-04T07:03:11;101345.50;;;10.11;60.92
60725;BME280;59881;36.722;-4.462;2023-03-04T07:05:37;101347.72;;;10.19;60.94
60725;BME280;59881;36.722;-4.462;2023-03-04T07:08:02;101352.56;;;10.26;60.64
60725;BME280;59881;36.722;-4.462;2023-03-04T07:10:28;101345.72;;;10.40;60.91
60725;BME280;59881;36.722;-4.462;2023-03-04T07:12:53;101343.25;;;10.52;60.72
60725;BME280;59881;36.722;-4.462;2023-03-04T07:15:19;101347.75;;;10.66;60.68
60725;BME280;59881;36.722;-4.462;2023-03-04T07:17:44;101345.34;;;10.77;60.07
60725;BME280;59881;36.722;-4.462;2023-03-04T07:20:10;101347.03;;;10.94;60.23
60725;BME280;59881;36.722;-4.462;2023-03-04T07:22:35;101352.34;;;11.09;59.71
60725;BME280;59881;36.722;-4.462;2023-03-04T07:25:01;101349.69;;;11.25;59.30
60725;BME280;59881;36.722;-4.462;2023-03-04T07:27:26;101358.09;;;11.46;58.90
60725;BME280;59881;36.722;-4.462;2023-03-04T07:29:51;101361.13;;;11.68;58.31
60725;BME280;59881;36.722;-4.462;2023-03-04T07:32:17;101367.59;;;11.93;57.75
60725;BME280;59881;36.722;-4.462;2023-03-04T07:34:42;101364.28;;;12.18;57.44
60725;BME280;59881;36.722;-4.462;2023-03-04T07:37:07;101365.19;;;12.46;56.73
60725;BME280;59881;36.722;-4.462;2023-03-04T07:39:33;101365.50;;;12.68;55.66
60725;BME280;59881;36.722;-4.462;2023-03-04T07:41:58;101366.09;;;12.86;55.17
60725;BME280;59881;36.722;-4.462;2023-03-04T07:44:23;101377.16;;;13.05;54.71
60725;BME280;59881;36.722;-4.462;2023-03-04T07:46:49;101370.91;;;13.34;54.27
60725;BME280;59881;36.722;-4.462;2023-03-04T07:49:14;101377.22;;;13.71;53.60
60725;BME280;59881;36.722;-4.462;2023-03-04T07:51:39;101383.53;;;14.07;52.24
60725;BME280;59881;36.722;-4.462;2023-03-04T07:54:05;101386.25;;;14.31;51.16
60725;BME280;59881;36.722;-4.462;2023-03-04T07:56:31;101383.47;;;14.45;50.22
60725;BME280;59881;36.722;-4.462;2023-03-04T07:58:57;101374.00;;;14.54;49.34
60725;BME280;59881;36.722;-4.462;2023-03-04T08:01:32;101386.50;;;14.65;48.63
60725;BME280;59881;36.722;-4.462;2023-03-04T08:03:58;101381.72;;;14.94;47.99
60725;BME280;59881;36.722;-4.462;2023-03-04T08:06:23;101385.38;;;15.28;47.01
60725;BME280;59881;36.722;-4.462;2023-03-04T08:08:54;101376.00;;;15.58;46.10
60725;BME280;59881;36.722;-4.462;2023-03-04T08:11:20;101374.03;;;15.84;45.55
60725;BME280;59881;36.722;-4.462;2023-03-04T08:13:45;101377.56;;;16.07;44.82
60725;BME280;59881;36.722;-4.462;2023-03-04T08:16:11;101380.56;;;16.37;44.12
60725;BME280;59881;36.722;-4.462;2023-03-04T08:18:39;101382.88;;;16.85;43.41
60725;BME280;59881;36.722;-4.462;2023-03-04T08:21:07;101390.56;;;17.52;42.34
60725;BME280;59881;36.722;-4.462;2023-03-04T08:23:32;101381.91;;;18.43;40.85
60725;BME280;59881;36.722;-4.462;2023-03-04T08:25:57;101381.03;;;19.02;39.26
60725;BME280;59881;36.722;-4.462;2023-03-04T08:28:23;101394.38;;;18.92;38.58
60725;BME280;59881;36.722;-4.462;2023-03-04T08:30:52;101391.28;;;18.97;38.73
60725;BME280;59881;36.722;-4.462;2023-03-04T08:33:17;101396.50;;;19.37;38.21
60725;BME280;59881;36.722;-4.462;2023-03-04T08:35:43;101394.03;;;19.83;37.39
60725;BME280;59881;36.722;-4.462;2023-03-04T08:38:08;101393.63;;;19.78;37.17
60725;BME280;59881;36.722;-4.462;2023-03-04T08:40:33;101385.75;;;19.76;37.22
60725;BME280;59881;36.722;-4.462;2023-03-04T08:42:59;101387.13;;;19.80;36.95
60725;BME280;59881;36.722;-4.462;2023-03-04T08:45:24;101395.41;;;19.87;36.92
60725;BME280;59881;36.722;-4.462;2023-03-04T08:47:50;101399.44;;;20.11;36.85
60725;BME280;59881;36.722;-4.462;2023-03-04T08:50:15;101402.59;;;20.52;36.10
60725;BME280;59881;36.722;-4.462;2023-03-04T08:52:41;101398.09;;;21.16;35.35
60725;BME280;59881;36.722;-4.462;2023-03-04T08:55:06;101401.50;;;21.62;34.41
60725;BME280;59881;36.722;-4.462;2023-03-04T08:57:31;101403.06;;;21.73;34.10
60725;BME280;59881;36.722;-4.462;2023-03-04T08:59:57;101407.38;;;21.91;34.04
60725;BME280;59881;36.722;-4.462;2023-03-04T09:02:22;101405.94;;;22.99;32.96
60725;BME280;59881;36.722;-4.462;2023-03-04T09:04:48;101400.13;;;26.16;28.42
60725;BME280;59881;36.722;-4.462;2023-03-04T09:07:13;101398.34;;;27.95;25.52
60725;BME280;59881;36.722;-4.462;2023-03-04T09:09:38;101409.38;;;28.90;24.24
60725;BME280;59881;36.722;-4.462;2023-03-04T09:12:04;101420.84;;;27.39;25.47
60725;BME280;59881;36.722;-4.462;2023-03-04T09:14:29;101422.81;;;25.39;28.33
60725;BME280;59881;36.722;-4.462;2023-03-04T09:16:56;101433.06;;;24.66;29.73
60725;BME280;59881;36.722;-4.462;2023-03-04T09:19:22;101427.78;;;25.50;28.96
60725;BME280;59881;36.722;-4.462;2023-03-04T09:21:48;101428.38;;;25.60;29.17
60725;BME280;59881;36.722;-4.462;2023-03-04T09:24:13;101436.25;;;26.81;27.56
60725;BME280;59881;36.722;-4.462;2023-03-04T09:26:39;101440.16;;;26.93;27.47
60725;BME280;59881;36.722;-4.462;2023-03-04T09:29:04;101440.16;;;28.21;26.11
60725;BME280;59881;36.722;-4.462;2023-03-04T09:31:30;101434.41;;;28.92;24.87
60725;BME280;59881;36.722;-4.462;2023-03-04T09:33:57;101452.66;;;29.72;24.24
60725;BME280;59881;36.722;-4.462;2023-03-04T09:36:22;101436.13;;;29.46;23.97
60725;BME280;59881;36.722;-4.462;2023-03-04T09:38:48;101439.72;;;28.59;24.59
60725;BME280;59881;36.722;-4.462;2023-03-04T09:41:28;101438.19;;;28.43;25.37
60725;BME280;59881;36.722;-4.462;2023-03-04T09:43:58;101454.63;;;28.89;24.52
60725;BME280;59881;36.722;-4.462;2023-03-04T09:46:34;101451.69;;;28.30;25.11
60725;BME280;59881;36.722;-4.462;2023-03-04T09:49:02;101453.47;;;27.16;26.49
60725;BME280;59881;36.722;-4.462;2023-03-04T09:56:18;101440.78;;;34.30;19.08
60725;BME280;59881;36.722;-4.462;2023-03-04T09:59:02;101445.25;;;35.39;18.08
60725;BME280;59881;36.722;-4.462;2023-03-04T10:01:36;101424.00;;;37.06;16.70
60725;BME280;59881;36.722;-4.462;2023-03-04T10:04:11;101435.69;;;37.18;16.09
60725;BME280;59881;36.722;-4.462;2023-03-04T10:06:39;101447.47;;;36.15;16.69
60725;BME280;59881;36.722;-4.462;2023-03-04T10:09:10;101442.88;;;36.21;17.30
60725;BME280;59881;36.722;-4.462;2023-03-04T10:11:45;101433.88;;;38.29;15.34
60725;BME280;59881;36.722;-4.462;2023-03-04T10:19:33;101449.91;;;38.48;15.17
60725;BME280;59881;36.722;-4.462;2023-03-04T10:22:01;101427.97;;;38.94;14.73
60725;BME280;59881;36.722;-4.462;2023-03-04T10:24:37;101434.31;;;38.95;14.68
60725;BME280;59881;36.722;-4.462;2023-03-04T10:27:04;101435.97;;;39.01;14.98
60725;BME280;59881;36.722;-4.462;2023-03-04T10:29:31;101422.69;;;39.75;14.20
60725;BME280;59881;36.722;-4.462;2023-03-04T10:31:57;101449.03;;;40.66;13.41
60725;BME280;59881;36.722;-4.462;2023-03-04T10:34:23;101431.56;;;39.41;13.65
60725;BME280;59881;36.722;-4.462;2023-03-04T10:37:02;101436.22;;;39.56;13.85
60725;BME280;59881;36.722;-4.462;2023-03-04T10:42:00;101438.63;;;39.93;13.45
60725;BME280;59881;36.722;-4.462;2023-03-04T10:44:26;101424.75;;;40.08;12.72
60725;BME280;59881;36.722;-4.462;2023-03-04T10:46:52;101417.72;;;40.42;12.44
60725;BME280;59881;36.722;-4.462;2023-03-04T10:49:18;101418.03;;;41.43;12.25
60725;BME280;59881;36.722;-4.462;2023-03-04T11:01:50;101430.34;;;36.08;16.06
60725;BME280;59881;36.722;-4.462;2023-03-04T11:04:18;101437.59;;;29.96;21.54
60725;BME280;59881;36.722;-4.462;2023-03-04T11:06:43;101447.22;;;24.21;28.75
60725;BME280;59881;36.722;-4.462;2023-03-04T11:09:19;101465.16;;;20.78;34.94
60725;BME280;59881;36.722;-4.462;2023-03-04T11:11:45;101455.56;;;18.74;39.30
60725;BME280;59881;36.722;-4.462;2023-03-04T11:14:21;101464.59;;;17.70;41.36
60725;BME280;59881;36.722;-4.462;2023-03-04T11:16:51;101458.34;;;16.95;43.96
60725;BME280;59881;36.722;-4.462;2023-03-04T11:19:17;101460.56;;;16.67;44.74
60725;BME280;59881;36.722;-4.462;2023-03-04T11:21:44;101466.75;;;16.45;45.50
60725;BME280;59881;36.722;-4.462;2023-03-04T11:24:22;101464.56;;;16.17;46.40
60725;BME280;59881;36.722;-4.462;2023-03-04T11:26:58;101469.13;;;16.03;46.42
60725;BME280;59881;36.722;-4.462;2023-03-04T11:30:12;101459.22;;;16.05;46.93
60725;BME280;59881;36.722;-4.462;2023-03-04T11:37:20;101456.78;;;16.02;46.71
60725;BME280;59881;36.722;-4.462;2023-03-04T11:42:17;101471.22;;;15.76;48.76
60725;BME280;59881;36.722;-4.462;2023-03-04T11:44:44;101463.78;;;15.57;48.21
60725;BME280;59881;36.722;-4.462;2023-03-04T11:50:08;101455.06;;;15.43;47.88
60725;BME280;59881;36.722;-4.462;2023-03-04T11:55:30;101466.75;;;15.17;48.13
60725;BME280;59881;36.722;-4.462;2023-03-04T12:00:54;101460.13;;;14.98;49.20
60725;BME280;59881;36.722;-4.462;2023-03-04T12:06:15;101457.78;;;15.06;48.78
60725;BME280;59881;36.722;-4.462;2023-03-04T17:44:19;101258.53;;;12.87;59.82
60725;BME280;59881;36.722;-4.462;2023-03-04T17:46:47;101258.94;;;12.80;60.43
60725;BME280;59881;36.722;-4.462;2023-03-04T17:49:13;101261.16;;;12.74;60.79
60725;BME280;59881;36.722;-4.462;2023-03-04T17:51:39;101265.03;;;12.68;61.43
60725;BME280;59881;36.722;-4.462;2023-03-04T17:54:05;101261.88;;;12.63;61.57
60725;BME280;59881;36.722;-4.462;2023-03-04T17:56:32;101268.28;;;12.59;62.00
60725;BME280;59881;36.722;-4.462;2023-03-04T17:58:58;101272.00;;;12.56;62.35
60725;BME280;59881;36.722;-4.462;2023-03-04T18:01:24;101274.84;;;12.53;62.55
60725;BME280;59881;36.722;-4.462;2023-03-04T18:03:49;101267.09;;;12.50;62.72
60725;BME280;59881;36.722;-4.462;2023-03-04T18:06:15;101272.50;;;12.49;62.76
60725;BME280;59881;36.722;-4.462;2023-03-04T18:08:41;101266.47;;;12.47;62.69
60725;BME280;59881;36.722;-4.462;2023-03-04T18:11:06;101269.13;;;12.47;63.02
60725;BME280;59881;36.722;-4.462;2023-03-04T18:13:31;101269.13;;;12.47;62.98
60725;BME280;59881;36.722;-4.462;2023-03-04T18:15:57;101273.66;;;12.45;63.37
60725;BME280;59881;36.722;-4.462;2023-03-04T18:18:22;101264.97;;;12.42;63.66
60725;BME280;59881;36.722;-4.462;2023-03-04T18:20:47;101262.41;;;12.41;63.90
60725;BME280;59881;36.722;-4.462;2023-03-04T18:23:13;101271.31;;;12.40;64.15
60725;BME280;59881;36.722;-4.462;2023-03-04T18:25:38;101274.13;;;12.37;64.34
60725;BME280;59881;36.722;-4.462;2023-03-04T18:28:04;101273.38;;;12.35;64.44
60725;BME280;59881;36.722;-4.462;2023-03-04T18:30:30;101269.06;;;12.34;64.82
60725;BME280;59881;36.722;-4.462;2023-03-04T18:32:56;101279.63;;;12.34;65.12
60725;BME280;59881;36.722;-4.462;2023-03-04T18:35:24;101278.88;;;12.32;65.35
60725;BME280;59881;36.722;-4.462;2023-03-04T18:37:49;101275.41;;;12.31;65.50
60725;BME280;59881;36.722;-4.462;2023-03-04T18:40:15;101286.81;;;12.32;65.90
60725;BME280;59881;36.722;-4.462;2023-03-04T18:42:40;101289.53;;;12.30;65.61
60725;BME280;59881;36.722;-4.462;2023-03-04T18:45:08;101290.50;;;12.29;66.06
60725;BME280;59881;36.722;-4.462;2023-03-04T18:47:34;101287.94;;;12.28;65.98
60725;BME280;59881;36.722;-4.462;2023-03-04T18:49:59;101296.81;;;12.27;66.25
60725;BME280;59881;36.722;-4.462;2023-03-04T18:52:25;101296.81;;;12.27;65.86
60725;BME280;59881;36.722;-4.462;2023-03-04T18:54:50;101295.97;;;12.26;66.04
60725;BME280;59881;36.722;-4.462;2023-03-04T18:57:15;101293.44;;;12.25;66.30
60725;BME280;59881;36.722;-4.462;2023-03-04T18:59:51;101304.09;;;12.23;66.19
60725;BME280;59881;36.722;-4.462;2023-03-04T19:02:25;101295.41;;;12.21;66.21